sensor_id;sensor_type;location;lat;lon;timestamp;pressure;altitude;pressure_sealevel;temperature;humidity
6851;BME280;3464;42.728;23.296;2022-08-01T00:02:21;95149.44;;;25.76;50.86
6851;BME280;3464;42.728;23.296;2022-08-01T00:05:11;95169.16;;;24.01;55.31
6851;BME280;3464;42.728;23.296;2022-08-01T00:08:00;95161.15;;;24.72;54.35
6851;BME280;3464;42.728;23.296;2022-08-01T00:10:50;95169.25;;;24.54;54.66
6851;BME280;3464;42.728;23.296;2022-08-01T00:13:39;95168.78;;;24.18;55.87
6851;BME280;3464;42.728;23.296;2022-08-01T00:16:29;95166.66;;;25.08;53.96
6851;BME280;3464;42.728;23.296;2022-08-01T00:19:19;95168.73;;;24.83;54.41
6851;BME280;3464;42.728;23.296;2022-08-01T00:22:08;95163.05;;;25.37;53.10
6851;BME280;3464;42.728;23.296;2022-08-01T00:24:58;95169.33;;;25.49;52.81
6851;BME280;3464;42.728;23.296;2022-08-01T00:27:47;95172.05;;;25.29;53.46
6851;BME280;3464;42.728;23.296;2022-08-01T00:30:36;95170.58;;;24.72;54.58
6851;BME280;3464;42.728;23.296;2022-08-01T00:33:26;95169.45;;;24.04;56.56
6851;BME280;3464;42.728;23.296;2022-08-01T00:36:16;95168.42;;;24.27;55.62
6851;BME280;3464;42.728;23.296;2022-08-01T00:39:05;95167.02;;;24.29;55.68
6851;BME280;3464;42.728;23.296;2022-08-01T00:41:54;95167.97;;;24.63;54.74
6851;BME280;3464;42.728;23.296;2022-08-01T00:44:44;95166.13;;;24.48;54.86
6851;BME280;3464;42.728;23.296;2022-08-01T00:47:34;95165.84;;;23.59;56.61
6851;BME280;3464;42.728;23.296;2022-08-01T00:50:23;95152.63;;;24.25;56.08
6851;BME280;3464;42.728;23.296;2022-08-01T00:53:12;95153.02;;;24.44;55.65
6851;BME280;3464;42.728;23.296;2022-08-01T00:56:02;95148.28;;;24.26;55.95
6851;BME280;3464;42.728;23.296;2022-08-01T00:58:52;95142.88;;;24.31;55.49
6851;BME280;3464;42.728;23.296;2022-08-01T01:01:41;95133.27;;;24.26;55.50
6851;BME280;3464;42.728;23.296;2022-08-01T01:04:31;95133.94;;;24.30;55.75
6851;BME280;3464;42.728;23.296;2022-08-01T01:10:30;95129.80;;;24.45;54.73
6851;BME280;3464;42.728;23.296;2022-08-01T01:13:23;95134.14;;;24.53;54.88
6851;BME280;3464;42.728;23.296;2022-08-01T01:16:13;95133.72;;;24.53;54.88
6851;BME280;3464;42.728;23.296;2022-08-01T01:19:01;95127.30;;;24.61;54.54
6851;BME280;3464;42.728;23.296;2022-08-01T01:22:21;95126.95;;;24.87;53.73
6851;BME280;3464;42.728;23.296;2022-08-01T01:28:27;95117.78;;;24.54;54.28
6851;BME280;3464;42.728;23.296;2022-08-01T01:31:14;95114.66;;;24.75;54.07
6851;BME280;3464;42.728;23.296;2022-08-01T01:34:04;95117.72;;;24.46;54.25
6851;BME280;3464;42.728;23.296;2022-08-01T01:36:54;95107.55;;;24.17;54.75
6851;BME280;3464;42.728;23.296;2022-08-01T01:39:43;95103.62;;;24.90;52.29
6851;BME280;3464;42.728;23.296;2022-08-01T01:42:32;95092.06;;;24.72;52.68
6851;BME280;3464;42.728;23.296;2022-08-01T01:45:23;95111.73;;;24.90;51.89
6851;BME280;3464;42.728;23.296;2022-08-01T01:48:13;95101.80;;;25.09;51.77
6851;BME280;3464;42.728;23.296;2022-08-01T01:51:02;95106.84;;;24.50;52.16
6851;BME280;3464;42.728;23.296;2022-08-01T01:53:52;95097.70;;;24.96;52.15
6851;BME280;3464;42.728;23.296;2022-08-01T01:56:41;95099.77;;;24.63;52.43
6851;BME280;3464;42.728;23.296;2022-08-01T01:59:32;95099.91;;;24.51;52.91
6851;BME280;3464;42.728;23.296;2022-08-01T02:02:20;95095.20;;;24.69;52.59
6851;BME280;3464;42.728;23.296;2022-08-01T02:05:10;95094.86;;;24.76;52.61
6851;BME280;3464;42.728;23.296;2022-08-01T02:07:59;95091.02;;;25.09;51.85
6851;BME280;3464;42.728;23.296;2022-08-01T02:10:48;95089.48;;;24.72;52.98
6851;BME280;3464;42.728;23.296;2022-08-01T02:13:43;95085.08;;;25.25;51.20
6851;BME280;3464;42.728;23.296;2022-08-01T02:16:33;95093.77;;;24.45;53.29
6851;BME280;3464;42.728;23.296;2022-08-01T02:19:22;95098.24;;;23.86;54.04
6851;BME280;3464;42.728;23.296;2022-08-01T02:22:19;95101.36;;;23.06;56.08
6851;BME280;3464;42.728;23.296;2022-08-01T02:25:11;95101.97;;;23.32;55.68
6851;BME280;3464;42.728;23.296;2022-08-01T02:28:15;95101.66;;;23.19;56.14
6851;BME280;3464;42.728;23.296;2022-08-01T02:31:06;95100.13;;;23.73;54.10
6851;BME280;3464;42.728;23.296;2022-08-01T02:33:57;95096.97;;;23.67;53.80
6851;BME280;3464;42.728;23.296;2022-08-01T02:36:46;95100.41;;;24.23;53.46
6851;BME280;3464;42.728;23.296;2022-08-01T02:39:36;95101.71;;;24.49;52.21
6851;BME280;3464;42.728;23.296;2022-08-01T02:42:25;95098.14;;;23.60;53.95
6851;BME280;3464;42.728;23.296;2022-08-01T02:45:15;95103.58;;;23.44;53.17
6851;BME280;3464;42.728;23.296;2022-08-01T02:48:09;95106.24;;;23.32;54.70
6851;BME280;3464;42.728;23.296;2022-08-01T02:50:58;95096.14;;;24.05;53.90
6851;BME280;3464;42.728;23.296;2022-08-01T02:53:47;95098.25;;;23.67;54.36
6851;BME280;3464;42.728;23.296;2022-08-01T02:56:37;95093.70;;;23.35;55.26
6851;BME280;3464;42.728;23.296;2022-08-01T02:59:26;95098.50;;;23.62;54.67
6851;BME280;3464;42.728;23.296;2022-08-01T03:02:16;95098.89;;;23.14;55.25
6851;BME280;3464;42.728;23.296;2022-08-01T03:05:06;95098.88;;;22.94;56.58
6851;BME280;3464;42.728;23.296;2022-08-01T03:07:55;95097.34;;;23.00;55.88
6851;BME280;3464;42.728;23.296;2022-08-01T03:10:44;95102.06;;;23.59;55.09
6851;BME280;3464;42.728;23.296;2022-08-01T03:13:34;95101.76;;;23.56;55.28
6851;BME280;3464;42.728;23.296;2022-08-01T03:16:23;95109.63;;;23.23;56.01
6851;BME280;3464;42.728;23.296;2022-08-01T03:19:13;95114.83;;;22.81;56.67
6851;BME280;3464;42.728;23.296;2022-08-01T03:22:02;95100.37;;;22.47;57.29
6851;BME280;3464;42.728;23.296;2022-08-01T03:24:52;95094.61;;;22.63;57.06
6851;BME280;3464;42.728;23.296;2022-08-01T03:27:42;95098.30;;;23.67;55.18
6851;BME280;3464;42.728;23.296;2022-08-01T03:30:32;95093.29;;;23.64;55.29
6851;BME280;3464;42.728;23.296;2022-08-01T03:33:21;95096.39;;;23.61;54.92
6851;BME280;3464;42.728;23.296;2022-08-01T03:36:11;95093.47;;;23.20;55.61
6851;BME280;3464;42.728;23.296;2022-08-01T03:39:01;95092.39;;;23.45;55.11
6851;BME280;3464;42.728;23.296;2022-08-01T03:41:51;95098.33;;;22.86;56.74
6851;BME280;3464;42.728;23.296;2022-08-01T03:44:39;95101.33;;;22.34;57.73
6851;BME280;3464;42.728;23.296;2022-08-01T03:47:30;95095.44;;;24.01;54.03
6851;BME280;3464;42.728;23.296;2022-08-01T03:50:19;95106.02;;;23.07;56.08
6851;BME280;3464;42.728;23.296;2022-08-01T03:53:09;95104.89;;;23.14;56.01
6851;BME280;3464;42.728;23.296;2022-08-01T03:55:59;95109.47;;;25.60;50.17
6851;BME280;3464;42.728;23.296;2022-08-01T03:58:49;95107.47;;;24.63;51.79
6851;BME280;3464;42.728;23.296;2022-08-01T04:01:39;95106.81;;;26.33;48.62
6851;BME280;3464;42.728;23.296;2022-08-01T04:04:29;95094.85;;;28.67;44.73
6851;BME280;3464;42.728;23.296;2022-08-01T04:07:26;95110.38;;;26.46;47.41
6851;BME280;3464;42.728;23.296;2022-08-01T04:10:16;95102.50;;;25.94;48.94
6851;BME280;3464;42.728;23.296;2022-08-01T04:13:05;95103.61;;;25.98;48.41
6851;BME280;3464;42.728;23.296;2022-08-01T04:15:55;95107.09;;;26.51;46.99
6851;BME280;3464;42.728;23.296;2022-08-01T04:18:44;95106.70;;;26.88;46.54
6851;BME280;3464;42.728;23.296;2022-08-01T04:21:34;95111.06;;;27.02;46.21
6851;BME280;3464;42.728;23.296;2022-08-01T04:24:23;95110.49;;;26.59;46.48
6851;BME280;3464;42.728;23.296;2022-08-01T04:27:13;95119.48;;;27.70;44.02
6851;BME280;3464;42.728;23.296;2022-08-01T04:30:04;95113.06;;;28.92;42.70
6851;BME280;3464;42.728;23.296;2022-08-01T04:32:54;95100.16;;;27.76;44.31
6851;BME280;3464;42.728;23.296;2022-08-01T04:35:44;95098.75;;;27.92;44.76
6851;BME280;3464;42.728;23.296;2022-08-01T04:38:34;95101.70;;;28.82;43.13
6851;BME280;3464;42.728;23.296;2022-08-01T04:41:22;95110.83;;;27.50;44.53
6851;BME280;3464;42.728;23.296;2022-08-01T04:44:12;95111.53;;;29.41;41.50
6851;BME280;3464;42.728;23.296;2022-08-01T04:47:02;95110.31;;;29.72;41.16
6851;BME280;3464;42.728;23.296;2022-08-01T04:49:51;95110.04;;;30.13;40.11
6851;BME280;3464;42.728;23.296;2022-08-01T04:52:42;95103.39;;;31.22;38.68
6851;BME280;3464;42.728;23.296;2022-08-01T04:55:31;95110.33;;;28.75;41.96
6851;BME280;3464;42.728;23.296;2022-08-01T04:58:21;95113.95;;;28.46;42.75
6851;BME280;3464;42.728;23.296;2022-08-01T05:01:11;95107.37;;;29.33;41.87
6851;BME280;3464;42.728;23.296;2022-08-01T05:04:00;95102.63;;;31.77;37.47
6851;BME280;3464;42.728;23.296;2022-08-01T05:06:50;95099.84;;;30.46;38.54
6851;BME280;3464;42.728;23.296;2022-08-01T05:09:40;95102.46;;;30.76;39.02
6851;BME280;3464;42.728;23.296;2022-08-01T05:12:29;95102.68;;;28.80;42.71
6851;BME280;3464;42.728;23.296;2022-08-01T05:15:18;95094.50;;;33.37;35.94
6851;BME280;3464;42.728;23.296;2022-08-01T05:18:08;95101.16;;;30.88;39.47
6851;BME280;3464;42.728;23.296;2022-08-01T05:20:57;95096.66;;;33.16;35.85
6851;BME280;3464;42.728;23.296;2022-08-01T05:23:47;95097.58;;;34.08;34.69
6851;BME280;3464;42.728;23.296;2022-08-01T05:26:36;95093.59;;;34.28;34.50
6851;BME280;3464;42.728;23.296;2022-08-01T05:29:26;95096.09;;;32.05;37.64
6851;BME280;3464;42.728;23.296;2022-08-01T05:32:17;95096.81;;;30.64;39.81
6851;BME280;3464;42.728;23.296;2022-08-01T05:35:07;95094.26;;;31.51;38.54
6851;BME280;3464;42.728;23.296;2022-08-01T05:37:56;95093.37;;;31.45;37.55
6851;BME280;3464;42.728;23.296;2022-08-01T05:40:46;95100.00;;;31.55;37.03
6851;BME280;3464;42.728;23.296;2022-08-01T05:43:35;95100.82;;;32.87;35.44
6851;BME280;3464;42.728;23.296;2022-08-01T05:46:25;95095.34;;;33.37;35.42
6851;BME280;3464;42.728;23.296;2022-08-01T05:49:14;95096.02;;;35.08;33.34
6851;BME280;3464;42.728;23.296;2022-08-01T05:52:05;95091.60;;;34.06;33.89
6851;BME280;3464;42.728;23.296;2022-08-01T05:54:54;95099.84;;;33.86;33.67
6851;BME280;3464;42.728;23.296;2022-08-01T05:57:44;95091.22;;;33.50;34.29
6851;BME280;3464;42.728;23.296;2022-08-01T06:00:33;95103.23;;;32.47;34.25
6851;BME280;3464;42.728;23.296;2022-08-01T06:03:23;95097.53;;;33.98;32.92
6851;BME280;3464;42.728;23.296;2022-08-01T06:06:12;95100.19;;;33.93;32.75
6851;BME280;3464;42.728;23.296;2022-08-01T06:09:02;95101.59;;;32.99;33.85
6851;BME280;3464;42.728;23.296;2022-08-01T06:11:51;95099.89;;;33.09;34.00
6851;BME280;3464;42.728;23.296;2022-08-01T06:14:41;95095.91;;;36.35;30.67
6851;BME280;3464;42.728;23.296;2022-08-01T06:17:31;95098.16;;;35.52;30.93
6851;BME280;3464;42.728;23.296;2022-08-01T06:20:20;95100.66;;;34.67;31.76
6851;BME280;3464;42.728;23.296;2022-08-01T06:23:10;95105.19;;;32.16;33.92
6851;BME280;3464;42.728;23.296;2022-08-01T06:25:59;95095.89;;;34.61;30.71
6851;BME280;3464;42.728;23.296;2022-08-01T06:28:49;95086.86;;;35.13;30.20
6851;BME280;3464;42.728;23.296;2022-08-01T06:31:38;95084.66;;;34.85;30.09
6851;BME280;3464;42.728;23.296;2022-08-01T06:34:28;95089.15;;;33.49;32.20
6851;BME280;3464;42.728;23.296;2022-08-01T06:37:17;95090.03;;;35.07;31.23
6851;BME280;3464;42.728;23.296;2022-08-01T06:40:10;95097.07;;;32.37;32.89
6851;BME280;3464;42.728;23.296;2022-08-01T06:42:58;95075.98;;;35.41;30.02
6851;BME280;3464;42.728;23.296;2022-08-01T06:45:49;95066.08;;;35.91;29.41
6851;BME280;3464;42.728;23.296;2022-08-01T06:48:38;95078.67;;;34.05;31.54
6851;BME280;3464;42.728;23.296;2022-08-01T06:51:27;95075.02;;;32.08;33.82
6851;BME280;3464;42.728;23.296;2022-08-01T06:54:17;95073.01;;;33.23;32.82
6851;BME280;3464;42.728;23.296;2022-08-01T06:57:07;95068.20;;;34.25;31.94
6851;BME280;3464;42.728;23.296;2022-08-01T06:59:57;95062.94;;;33.85;30.98
6851;BME280;3464;42.728;23.296;2022-08-01T07:02:46;95073.19;;;35.57;29.83
6851;BME280;3464;42.728;23.296;2022-08-01T07:05:36;95062.02;;;36.47;28.93
6851;BME280;3464;42.728;23.296;2022-08-01T07:08:25;95058.58;;;32.24;32.37
6851;BME280;3464;42.728;23.296;2022-08-01T07:11:15;95068.06;;;32.19;32.20
6851;BME280;3464;42.728;23.296;2022-08-01T07:14:04;95069.05;;;31.96;32.63
6851;BME280;3464;42.728;23.296;2022-08-01T07:16:54;95056.56;;;32.86;31.76
6851;BME280;3464;42.728;23.296;2022-08-01T07:19:44;95061.70;;;33.89;31.02
6851;BME280;3464;42.728;23.296;2022-08-01T07:22:33;95067.70;;;33.86;30.95
6851;BME280;3464;42.728;23.296;2022-08-01T07:25:23;95062.75;;;35.66;29.72
6851;BME280;3464;42.728;23.296;2022-08-01T07:28:12;95065.95;;;33.81;30.88
6851;BME280;3464;42.728;23.296;2022-08-01T07:31:02;95062.38;;;34.12;31.24
6851;BME280;3464;42.728;23.296;2022-08-01T07:33:51;95060.31;;;34.35;30.33
6851;BME280;3464;42.728;23.296;2022-08-01T07:36:41;95055.46;;;35.37;29.74
6851;BME280;3464;42.728;23.296;2022-08-01T07:39:30;95062.97;;;32.18;32.68
6851;BME280;3464;42.728;23.296;2022-08-01T07:42:20;95054.28;;;33.24;31.65
6851;BME280;3464;42.728;23.296;2022-08-01T07:45:10;95060.29;;;35.55;29.73
6851;BME280;3464;42.728;23.296;2022-08-01T07:48:03;95058.76;;;34.77;30.55
6851;BME280;3464;42.728;23.296;2022-08-01T07:50:53;95053.54;;;35.62;30.22
6851;BME280;3464;42.728;23.296;2022-08-01T07:53:44;95065.97;;;31.86;33.92
6851;BME280;3464;42.728;23.296;2022-08-01T07:56:33;95070.56;;;33.68;32.35
6851;BME280;3464;42.728;23.296;2022-08-01T07:59:23;95062.47;;;32.83;33.36
6851;BME280;3464;42.728;23.296;2022-08-01T08:02:12;95063.33;;;32.41;33.68
6851;BME280;3464;42.728;23.296;2022-08-01T08:05:03;95063.91;;;31.56;35.07
6851;BME280;3464;42.728;23.296;2022-08-01T08:07:52;95057.13;;;32.90;33.32
6851;BME280;3464;42.728;23.296;2022-08-01T08:10:42;95075.00;;;31.13;34.94
6851;BME280;3464;42.728;23.296;2022-08-01T08:13:31;95067.66;;;30.31;36.62
6851;BME280;3464;42.728;23.296;2022-08-01T08:16:21;95068.11;;;30.30;35.55
6851;BME280;3464;42.728;23.296;2022-08-01T08:19:10;95061.84;;;30.03;35.63
6851;BME280;3464;42.728;23.296;2022-08-01T08:22:00;95056.00;;;30.30;36.17
6851;BME280;3464;42.728;23.296;2022-08-01T08:24:49;95054.31;;;29.93;36.10
6851;BME280;3464;42.728;23.296;2022-08-01T08:27:38;95065.57;;;30.18;34.79
6851;BME280;3464;42.728;23.296;2022-08-01T08:30:28;95061.52;;;30.26;35.88
6851;BME280;3464;42.728;23.296;2022-08-01T08:33:17;95069.40;;;30.60;34.76
6851;BME280;3464;42.728;23.296;2022-08-01T08:36:07;95059.95;;;29.56;36.85
6851;BME280;3464;42.728;23.296;2022-08-01T08:38:57;95067.82;;;30.88;34.83
6851;BME280;3464;42.728;23.296;2022-08-01T08:41:46;95059.20;;;31.04;34.16
6851;BME280;3464;42.728;23.296;2022-08-01T08:44:35;95058.79;;;31.77;34.13
6851;BME280;3464;42.728;23.296;2022-08-01T08:47:25;95060.36;;;30.83;35.17
6851;BME280;3464;42.728;23.296;2022-08-01T08:50:14;95059.79;;;29.83;36.01
6851;BME280;3464;42.728;23.296;2022-08-01T08:53:04;95062.73;;;30.86;33.89
6851;BME280;3464;42.728;23.296;2022-08-01T08:55:54;95047.78;;;30.83;34.18
6851;BME280;3464;42.728;23.296;2022-08-01T08:58:44;95060.19;;;30.26;35.81
6851;BME280;3464;42.728;23.296;2022-08-01T09:01:32;95046.91;;;29.82;36.32
6851;BME280;3464;42.728;23.296;2022-08-01T09:04:22;95046.76;;;30.21;36.22
6851;BME280;3464;42.728;23.296;2022-08-01T09:07:11;95047.20;;;29.53;36.09
6851;BME280;3464;42.728;23.296;2022-08-01T09:10:01;95051.67;;;30.36;35.73
6851;BME280;3464;42.728;23.296;2022-08-01T09:13:09;95055.08;;;30.78;34.38
6851;BME280;3464;42.728;23.296;2022-08-01T09:15:58;95040.08;;;30.41;35.02
6851;BME280;3464;42.728;23.296;2022-08-01T09:18:47;95032.54;;;30.37;34.86
6851;BME280;3464;42.728;23.296;2022-08-01T09:21:37;95039.89;;;29.95;35.02
6851;BME280;3464;42.728;23.296;2022-08-01T09:24:27;95024.37;;;29.64;35.65
6851;BME280;3464;42.728;23.296;2022-08-01T09:27:26;95035.04;;;30.74;34.45
6851;BME280;3464;42.728;23.296;2022-08-01T09:30:16;95033.06;;;29.75;34.95
6851;BME280;3464;42.728;23.296;2022-08-01T09:33:05;95027.45;;;30.47;33.80
6851;BME280;3464;42.728;23.296;2022-08-01T09:35:55;95027.66;;;29.91;34.32
6851;BME280;3464;42.728;23.296;2022-08-01T09:38:44;95035.05;;;29.96;34.01
6851;BME280;3464;42.728;23.296;2022-08-01T09:41:37;95037.01;;;30.18;33.78
6851;BME280;3464;42.728;23.296;2022-08-01T09:47:23;95040.16;;;30.03;35.34
6851;BME280;3464;42.728;23.296;2022-08-01T09:50:12;95034.34;;;30.30;34.90
6851;BME280;3464;42.728;23.296;2022-08-01T09:53:02;95038.80;;;29.30;35.07
6851;BME280;3464;42.728;23.296;2022-08-01T09:55:51;95027.34;;;29.89;35.17
6851;BME280;3464;42.728;23.296;2022-08-01T10:01:45;95046.57;;;30.94;35.30
6851;BME280;3464;42.728;23.296;2022-08-01T10:04:35;95042.41;;;30.74;35.32
6851;BME280;3464;42.728;23.296;2022-08-01T10:07:24;95039.34;;;30.86;35.33
6851;BME280;3464;42.728;23.296;2022-08-01T10:10:16;95030.14;;;31.66;35.48
6851;BME280;3464;42.728;23.296;2022-08-01T10:13:05;95023.41;;;30.14;35.63
6851;BME280;3464;42.728;23.296;2022-08-01T10:15:55;95029.25;;;30.88;34.96
6851;BME280;3464;42.728;23.296;2022-08-01T10:18:44;95028.74;;;30.83;34.98
6851;BME280;3464;42.728;23.296;2022-08-01T10:21:34;95018.99;;;30.80;35.26
6851;BME280;3464;42.728;23.296;2022-08-01T10:24:24;95027.73;;;30.38;35.00
6851;BME280;3464;42.728;23.296;2022-08-01T10:27:14;95012.73;;;30.83;34.25
6851;BME280;3464;42.728;23.296;2022-08-01T10:30:03;95018.96;;;30.09;34.86
6851;BME280;3464;42.728;23.296;2022-08-01T10:32:52;95018.23;;;30.72;34.29
6851;BME280;3464;42.728;23.296;2022-08-01T10:35:42;95022.64;;;30.48;34.72
6851;BME280;3464;42.728;23.296;2022-08-01T10:38:31;95014.25;;;30.74;34.81
6851;BME280;3464;42.728;23.296;2022-08-01T10:41:21;95009.27;;;29.94;36.11
6851;BME280;3464;42.728;23.296;2022-08-01T10:44:10;95000.88;;;29.29;36.81
6851;BME280;3464;42.728;23.296;2022-08-01T10:47:04;95001.24;;;30.33;35.83
6851;BME280;3464;42.728;23.296;2022-08-01T10:49:59;94996.53;;;31.80;33.90
6851;BME280;3464;42.728;23.296;2022-08-01T10:55:46;94999.48;;;30.68;35.00
6851;BME280;3464;42.728;23.296;2022-08-01T10:58:36;94992.16;;;30.50;35.82
6851;BME280;3464;42.728;23.296;2022-08-01T11:01:28;95001.14;;;30.52;35.40
6851;BME280;3464;42.728;23.296;2022-08-01T11:04:16;94993.59;;;29.96;36.03
6851;BME280;3464;42.728;23.296;2022-08-01T11:07:13;94986.59;;;30.14;35.60
6851;BME280;3464;42.728;23.296;2022-08-01T11:10:15;94998.66;;;30.74;35.14
6851;BME280;3464;42.728;23.296;2022-08-01T11:13:00;94991.30;;;30.44;35.28
6851;BME280;3464;42.728;23.296;2022-08-01T11:15:50;94988.88;;;31.11;34.71
6851;BME280;3464;42.728;23.296;2022-08-01T11:18:49;94991.14;;;30.29;35.18
6851;BME280;3464;42.728;23.296;2022-08-01T11:27:28;94993.35;;;30.81;34.99
6851;BME280;3464;42.728;23.296;2022-08-01T11:30:31;94988.13;;;30.58;35.84
6851;BME280;3464;42.728;23.296;2022-08-01T11:33:53;94990.97;;;30.32;35.86
6851;BME280;3464;42.728;23.296;2022-08-01T11:36:26;94974.77;;;30.86;34.91
6851;BME280;3464;42.728;23.296;2022-08-01T11:39:18;94978.94;;;31.39;34.17
6851;BME280;3464;42.728;23.296;2022-08-01T11:45:04;94982.83;;;30.71;35.14
6851;BME280;3464;42.728;23.296;2022-08-01T11:47:55;94983.70;;;30.42;35.90
6851;BME280;3464;42.728;23.296;2022-08-01T11:50:44;94979.17;;;31.58;34.33
6851;BME280;3464;42.728;23.296;2022-08-01T11:53:34;94976.15;;;31.41;34.20
6851;BME280;3464;42.728;23.296;2022-08-01T11:56:23;94984.94;;;30.89;35.12
6851;BME280;3464;42.728;23.296;2022-08-01T11:59:13;94971.59;;;30.42;35.41
6851;BME280;3464;42.728;23.296;2022-08-01T12:02:03;94973.26;;;31.89;34.41
6851;BME280;3464;42.728;23.296;2022-08-01T12:04:55;94971.03;;;30.84;34.91
6851;BME280;3464;42.728;23.296;2022-08-01T12:07:44;94965.49;;;31.78;34.55
6851;BME280;3464;42.728;23.296;2022-08-01T12:10:34;94967.62;;;30.95;35.08
6851;BME280;3464;42.728;23.296;2022-08-01T12:13:24;94957.71;;;31.55;34.66
6851;BME280;3464;42.728;23.296;2022-08-01T12:16:14;94959.73;;;32.01;33.67
6851;BME280;3464;42.728;23.296;2022-08-01T12:19:04;94963.50;;;31.64;34.30
6851;BME280;3464;42.728;23.296;2022-08-01T12:24:49;94955.21;;;31.26;34.84
6851;BME280;3464;42.728;23.296;2022-08-01T12:27:39;94964.51;;;31.46;34.43
6851;BME280;3464;42.728;23.296;2022-08-01T12:30:28;94966.33;;;31.00;35.53
6851;BME280;3464;42.728;23.296;2022-08-01T12:33:18;94971.44;;;30.79;36.28
6851;BME280;3464;42.728;23.296;2022-08-01T12:36:06;94968.66;;;31.38;34.91
6851;BME280;3464;42.728;23.296;2022-08-01T12:38:56;94968.83;;;30.61;35.67
6851;BME280;3464;42.728;23.296;2022-08-01T12:41:45;94968.80;;;30.68;36.20
6851;BME280;3464;42.728;23.296;2022-08-01T12:44:35;94956.19;;;31.36;35.57
6851;BME280;3464;42.728;23.296;2022-08-01T12:47:24;94958.56;;;31.11;35.72
6851;BME280;3464;42.728;23.296;2022-08-01T12:50:18;94956.73;;;30.79;36.03
6851;BME280;3464;42.728;23.296;2022-08-01T12:53:07;94953.40;;;31.10;36.22
6851;BME280;3464;42.728;23.296;2022-08-01T12:55:56;94948.20;;;32.09;34.39
6851;BME280;3464;42.728;23.296;2022-08-01T12:58:45;94945.38;;;31.91;34.48
6851;BME280;3464;42.728;23.296;2022-08-01T13:01:35;94941.94;;;32.27;34.46
6851;BME280;3464;42.728;23.296;2022-08-01T13:04:24;94949.48;;;32.41;34.32
6851;BME280;3464;42.728;23.296;2022-08-01T13:07:14;94953.48;;;30.69;36.00
6851;BME280;3464;42.728;23.296;2022-08-01T13:10:04;94942.07;;;32.10;34.42
6851;BME280;3464;42.728;23.296;2022-08-01T13:12:53;94950.30;;;31.50;35.06
6851;BME280;3464;42.728;23.296;2022-08-01T13:15:42;94954.42;;;33.37;33.45
6851;BME280;3464;42.728;23.296;2022-08-01T13:18:32;94943.02;;;31.88;35.18
6851;BME280;3464;42.728;23.296;2022-08-01T13:21:22;94942.48;;;33.44;33.11
6851;BME280;3464;42.728;23.296;2022-08-01T13:24:13;94944.14;;;32.11;34.22
6851;BME280;3464;42.728;23.296;2022-08-01T13:27:02;94935.69;;;32.08;33.63
6851;BME280;3464;42.728;23.296;2022-08-01T13:29:53;94945.08;;;31.89;34.08
6851;BME280;3464;42.728;23.296;2022-08-01T13:32:43;94925.86;;;33.15;34.16
6851;BME280;3464;42.728;23.296;2022-08-01T13:35:32;94934.39;;;32.87;33.76
6851;BME280;3464;42.728;23.296;2022-08-01T13:38:21;94927.59;;;32.48;34.24
6851;BME280;3464;42.728;23.296;2022-08-01T13:41:16;94928.81;;;32.44;33.82
6851;BME280;3464;42.728;23.296;2022-08-01T13:44:05;94920.70;;;32.74;34.09
6851;BME280;3464;42.728;23.296;2022-08-01T13:46:55;94928.08;;;33.25;33.38
6851;BME280;3464;42.728;23.296;2022-08-01T13:49:44;94917.20;;;32.43;33.93
6851;BME280;3464;42.728;23.296;2022-08-01T13:52:34;94924.55;;;33.35;33.05
6851;BME280;3464;42.728;23.296;2022-08-01T13:55:24;94931.11;;;32.27;34.29
6851;BME280;3464;42.728;23.296;2022-08-01T13:58:14;94928.36;;;32.81;33.79
6851;BME280;3464;42.728;23.296;2022-08-01T14:01:04;94921.12;;;32.74;33.53
6851;BME280;3464;42.728;23.296;2022-08-01T14:03:53;94928.03;;;31.36;35.05
6851;BME280;3464;42.728;23.296;2022-08-01T14:06:44;94925.97;;;31.35;35.40
6851;BME280;3464;42.728;23.296;2022-08-01T14:09:33;94925.59;;;32.25;34.27
6851;BME280;3464;42.728;23.296;2022-08-01T14:12:23;94914.02;;;32.96;33.55
6851;BME280;3464;42.728;23.296;2022-08-01T14:15:12;94907.63;;;32.79;33.84
6851;BME280;3464;42.728;23.296;2022-08-01T14:18:02;94915.16;;;33.48;32.79
6851;BME280;3464;42.728;23.296;2022-08-01T14:20:51;94910.48;;;33.47;32.74
6851;BME280;3464;42.728;23.296;2022-08-01T14:23:41;94912.00;;;33.50;32.59
6851;BME280;3464;42.728;23.296;2022-08-01T14:26:31;94912.89;;;32.94;33.51
6851;BME280;3464;42.728;23.296;2022-08-01T14:29:20;94920.85;;;32.36;33.97
6851;BME280;3464;42.728;23.296;2022-08-01T14:32:10;94913.46;;;32.30;33.94
6851;BME280;3464;42.728;23.296;2022-08-01T14:35:01;94903.76;;;32.43;34.05
6851;BME280;3464;42.728;23.296;2022-08-01T14:37:50;94908.03;;;33.05;33.50
6851;BME280;3464;42.728;23.296;2022-08-01T14:40:40;94914.43;;;32.76;33.82
6851;BME280;3464;42.728;23.296;2022-08-01T14:43:29;94917.63;;;31.74;34.49
6851;BME280;3464;42.728;23.296;2022-08-01T14:46:19;94915.98;;;32.37;34.17
6851;BME280;3464;42.728;23.296;2022-08-01T14:49:08;94923.16;;;33.57;32.39
6851;BME280;3464;42.728;23.296;2022-08-01T14:51:58;94920.69;;;32.27;34.39
6851;BME280;3464;42.728;23.296;2022-08-01T14:54:47;94918.93;;;32.32;33.64
6851;BME280;3464;42.728;23.296;2022-08-01T14:57:37;94928.18;;;32.83;33.03
6851;BME280;3464;42.728;23.296;2022-08-01T15:00:27;94924.58;;;32.01;34.38
6851;BME280;3464;42.728;23.296;2022-08-01T15:03:17;94929.14;;;33.17;32.84
6851;BME280;3464;42.728;23.296;2022-08-01T15:06:06;94929.98;;;32.09;34.21
6851;BME280;3464;42.728;23.296;2022-08-01T15:08:56;94927.76;;;31.83;34.74
6851;BME280;3464;42.728;23.296;2022-08-01T15:11:45;94927.33;;;31.77;34.94
6851;BME280;3464;42.728;23.296;2022-08-01T15:14:34;94921.20;;;32.15;34.29
6851;BME280;3464;42.728;23.296;2022-08-01T15:17:29;94922.20;;;32.40;34.42
6851;BME280;3464;42.728;23.296;2022-08-01T15:20:19;94926.02;;;32.25;34.23
6851;BME280;3464;42.728;23.296;2022-08-01T15:23:08;94928.20;;;32.25;33.77
6851;BME280;3464;42.728;23.296;2022-08-01T15:25:57;94930.91;;;31.49;35.07
6851;BME280;3464;42.728;23.296;2022-08-01T15:28:46;94925.09;;;31.62;34.89
6851;BME280;3464;42.728;23.296;2022-08-01T15:31:36;94925.50;;;31.73;34.64
6851;BME280;3464;42.728;23.296;2022-08-01T15:34:25;94932.25;;;31.70;34.66
6851;BME280;3464;42.728;23.296;2022-08-01T15:37:15;94934.75;;;32.20;34.32
6851;BME280;3464;42.728;23.296;2022-08-01T15:40:04;94930.98;;;32.28;33.90